Weather at Kolchiko Airfield

Public forecast

Using degrees Celsius for public forecast. Weather courtesy of forecast.io.

Closest aviation weather report (METAR) to Kolchiko Airfield

Closest report is Thessaloniki Macedonia International Airport, 15.3 nm (28.2 km) SSW.

2024/05/21 06:50 (retrieved 36 minutes ago)

LGTS 210650Z 34004KT CAVOK 22/14 Q1015 NOSIG

Closest aviation forecast (TAF) to Kolchiko Airfield

Closest forecast is Thessaloniki Macedonia International Airport, 15.3 nm (28.2 km) SSW.

2024/05/21 06:16 (retrieved 1 hour ago)

TAF LGTS 210500Z 2106/2206 VRB03KT 9999 FEW025 TEMPO 2111/2118 17010KT